sensor_id;sensor_type;location;lat;lon;timestamp;P1;durP1;ratioP1;P2;durP2;ratioP2
30635;SDS011;17400;52.392;9.750;2023-03-21T00:00:46;18.55;;;9.93;;
30635;SDS011;17400;52.392;9.750;2023-03-21T00:03:15;15.32;;;9.10;;
30635;SDS011;17400;52.392;9.750;2023-03-21T00:05:43;19.08;;;11.68;;
30635;SDS011;17400;52.392;9.750;2023-03-21T00:08:15;16.17;;;8.82;;
30635;SDS011;17400;52.392;9.750;2023-03-21T00:10:43;12.93;;;8.48;;
30635;SDS011;17400;52.392;9.750;2023-03-21T00:13:13;15.35;;;8.52;;
30635;SDS011;17400;52.392;9.750;2023-03-21T00:15:42;17.83;;;9.05;;
30635;SDS011;17400;52.392;9.750;2023-03-21T00:18:33;13.30;;;7.57;;
30635;SDS011;17400;52.392;9.750;2023-03-21T00:21:07;14.95;;;9.18;;
30635;SDS011;17400;52.392;9.750;2023-03-21T00:23:58;12.13;;;6.63;;
30635;SDS011;17400;52.392;9.750;2023-03-21T00:26:26;14.25;;;8.57;;
30635;SDS011;17400;52.392;9.750;2023-03-21T00:28:54;18.48;;;10.00;;
30635;SDS011;17400;52.392;9.750;2023-03-21T00:31:23;18.60;;;10.05;;
30635;SDS011;17400;52.392;9.750;2023-03-21T00:33:51;23.63;;;9.57;;
30635;SDS011;17400;52.392;9.750;2023-03-21T00:36:18;16.83;;;8.90;;
30635;SDS011;17400;52.392;9.750;2023-03-21T00:38:47;17.73;;;9.13;;
30635;SDS011;17400;52.392;9.750;2023-03-21T00:41:14;16.90;;;9.55;;
30635;SDS011;17400;52.392;9.750;2023-03-21T00:44:02;19.42;;;11.52;;
30635;SDS011;17400;52.392;9.750;2023-03-21T00:46:31;15.02;;;9.18;;
30635;SDS011;17400;52.392;9.750;2023-03-21T00:49:12;12.90;;;7.82;;
30635;SDS011;17400;52.392;9.750;2023-03-21T00:51:40;18.02;;;9.73;;
30635;SDS011;17400;52.392;9.750;2023-03-21T00:54:09;19.48;;;10.68;;
30635;SDS011;17400;52.392;9.750;2023-03-21T00:56:38;18.77;;;11.35;;
30635;SDS011;17400;52.392;9.750;2023-03-21T00:59:06;18.52;;;10.38;;
30635;SDS011;17400;52.392;9.750;2023-03-21T01:01:35;19.33;;;11.07;;
30635;SDS011;17400;52.392;9.750;2023-03-21T01:04:02;19.92;;;11.13;;
30635;SDS011;17400;52.392;9.750;2023-03-21T01:06:34;19.90;;;11.07;;
30635;SDS011;17400;52.392;9.750;2023-03-21T01:09:05;16.95;;;10.32;;
30635;SDS011;17400;52.392;9.750;2023-03-21T01:11:33;16.60;;;9.60;;
30635;SDS011;17400;52.392;9.750;2023-03-21T01:14:01;19.55;;;10.85;;
30635;SDS011;17400;52.392;9.750;2023-03-21T01:16:48;19.83;;;11.57;;
30635;SDS011;17400;52.392;9.750;2023-03-21T01:19:17;22.45;;;11.93;;
30635;SDS011;17400;52.392;9.750;2023-03-21T01:21:54;19.23;;;11.68;;
30635;SDS011;17400;52.392;9.750;2023-03-21T01:24:22;13.02;;;8.45;;
30635;SDS011;17400;52.392;9.750;2023-03-21T01:26:50;16.58;;;11.50;;
30635;SDS011;17400;52.392;9.750;2023-03-21T01:29:18;23.17;;;11.32;;
30635;SDS011;17400;52.392;9.750;2023-03-21T01:31:46;17.80;;;10.52;;
30635;SDS011;17400;52.392;9.750;2023-03-21T01:34:15;21.75;;;12.07;;
30635;SDS011;17400;52.392;9.750;2023-03-21T01:36:44;20.02;;;11.82;;
30635;SDS011;17400;52.392;9.750;2023-03-21T01:39:11;21.05;;;11.93;;
30635;SDS011;17400;52.392;9.750;2023-03-21T01:41:40;18.85;;;11.25;;
30635;SDS011;17400;52.392;9.750;2023-03-21T01:44:13;19.50;;;10.40;;
30635;SDS011;17400;52.392;9.750;2023-03-21T01:46:43;14.15;;;8.73;;
30635;SDS011;17400;52.392;9.750;2023-03-21T01:49:35;18.33;;;10.95;;
30635;SDS011;17400;52.392;9.750;2023-03-21T01:52:06;17.83;;;9.27;;
30635;SDS011;17400;52.392;9.750;2023-03-21T01:54:49;21.17;;;9.55;;
30635;SDS011;17400;52.392;9.750;2023-03-21T01:57:21;15.75;;;9.90;;
30635;SDS011;17400;52.392;9.750;2023-03-21T02:00:12;18.38;;;9.70;;
30635;SDS011;17400;52.392;9.750;2023-03-21T02:02:44;18.52;;;10.43;;
30635;SDS011;17400;52.392;9.750;2023-03-21T02:05:21;18.85;;;10.93;;
30635;SDS011;17400;52.392;9.750;2023-03-21T02:07:53;21.00;;;10.43;;
30635;SDS011;17400;52.392;9.750;2023-03-21T02:10:21;20.33;;;12.18;;
30635;SDS011;17400;52.392;9.750;2023-03-21T02:12:49;20.60;;;11.20;;
30635;SDS011;17400;52.392;9.750;2023-03-21T02:15:20;18.65;;;11.27;;
30635;SDS011;17400;52.392;9.750;2023-03-21T02:17:52;18.90;;;10.48;;
30635;SDS011;17400;52.392;9.750;2023-03-21T02:20:35;15.85;;;9.55;;
30635;SDS011;17400;52.392;9.750;2023-03-21T02:23:25;19.70;;;11.02;;
30635;SDS011;17400;52.392;9.750;2023-03-21T02:26:18;19.40;;;10.98;;
30635;SDS011;17400;52.392;9.750;2023-03-21T02:29:09;22.95;;;11.93;;
30635;SDS011;17400;52.392;9.750;2023-03-21T02:31:55;21.33;;;11.63;;
30635;SDS011;17400;52.392;9.750;2023-03-21T02:34:53;15.20;;;10.10;;
30635;SDS011;17400;52.392;9.750;2023-03-21T02:37:38;18.15;;;10.90;;
30635;SDS011;17400;52.392;9.750;2023-03-21T02:40:18;18.05;;;10.82;;
30635;SDS011;17400;52.392;9.750;2023-03-21T02:42:53;19.48;;;10.80;;
30635;SDS011;17400;52.392;9.750;2023-03-21T02:45:32;16.63;;;10.50;;
30635;SDS011;17400;52.392;9.750;2023-03-21T02:48:06;18.58;;;10.25;;
30635;SDS011;17400;52.392;9.750;2023-03-21T02:50:51;14.57;;;8.20;;
30635;SDS011;17400;52.392;9.750;2023-03-21T02:53:24;15.23;;;9.18;;
30635;SDS011;17400;52.392;9.750;2023-03-21T02:55:59;18.95;;;11.95;;
30635;SDS011;17400;52.392;9.750;2023-03-21T02:58:28;15.25;;;8.65;;
30635;SDS011;17400;52.392;9.750;2023-03-21T03:00:58;16.92;;;10.07;;
30635;SDS011;17400;52.392;9.750;2023-03-21T03:03:26;14.05;;;8.13;;
30635;SDS011;17400;52.392;9.750;2023-03-21T03:06:00;17.20;;;8.07;;
30635;SDS011;17400;52.392;9.750;2023-03-21T03:08:34;11.82;;;7.55;;
30635;SDS011;17400;52.392;9.750;2023-03-21T03:11:27;10.88;;;6.68;;
30635;SDS011;17400;52.392;9.750;2023-03-21T03:17:17;14.63;;;7.75;;
30635;SDS011;17400;52.392;9.750;2023-03-21T03:19:58;17.25;;;10.30;;
30635;SDS011;17400;52.392;9.750;2023-03-21T03:22:44;15.75;;;8.18;;
30635;SDS011;17400;52.392;9.750;2023-03-21T03:25:24;17.90;;;10.40;;
30635;SDS011;17400;52.392;9.750;2023-03-21T03:28:08;16.30;;;10.02;;
30635;SDS011;17400;52.392;9.750;2023-03-21T03:30:37;15.98;;;9.32;;
30635;SDS011;17400;52.392;9.750;2023-03-21T03:33:22;17.83;;;10.35;;
30635;SDS011;17400;52.392;9.750;2023-03-21T03:35:52;17.63;;;11.15;;
30635;SDS011;17400;52.392;9.750;2023-03-21T03:38:32;18.80;;;10.05;;
30635;SDS011;17400;52.392;9.750;2023-03-21T03:41:06;10.98;;;6.70;;
30635;SDS011;17400;52.392;9.750;2023-03-21T03:43:38;12.95;;;7.65;;
30635;SDS011;17400;52.392;9.750;2023-03-21T03:46:10;15.95;;;9.05;;
30635;SDS011;17400;52.392;9.750;2023-03-21T03:48:45;19.02;;;8.88;;
30635;SDS011;17400;52.392;9.750;2023-03-21T03:51:18;11.15;;;5.88;;
30635;SDS011;17400;52.392;9.750;2023-03-21T03:53:50;15.93;;;6.95;;
30635;SDS011;17400;52.392;9.750;2023-03-21T03:56:22;14.15;;;7.60;;
30635;SDS011;17400;52.392;9.750;2023-03-21T03:58:51;15.52;;;7.80;;
30635;SDS011;17400;52.392;9.750;2023-03-21T04:01:19;11.32;;;6.90;;
30635;SDS011;17400;52.392;9.750;2023-03-21T04:03:47;13.85;;;8.52;;
30635;SDS011;17400;52.392;9.750;2023-03-21T04:06:26;11.23;;;7.30;;
30635;SDS011;17400;52.392;9.750;2023-03-21T04:08:54;10.23;;;6.13;;
30635;SDS011;17400;52.392;9.750;2023-03-21T04:11:26;11.60;;;6.10;;
30635;SDS011;17400;52.392;9.750;2023-03-21T04:13:54;14.02;;;8.23;;
30635;SDS011;17400;52.392;9.750;2023-03-21T04:16:22;17.92;;;9.18;;
30635;SDS011;17400;52.392;9.750;2023-03-21T04:18:50;13.50;;;7.95;;
30635;SDS011;17400;52.392;9.750;2023-03-21T04:21:17;9.75;;;6.18;;
30635;SDS011;17400;52.392;9.750;2023-03-21T04:23:46;12.48;;;6.68;;
30635;SDS011;17400;52.392;9.750;2023-03-21T04:26:14;16.00;;;8.30;;
30635;SDS011;17400;52.392;9.750;2023-03-21T04:28:43;10.82;;;6.05;;
30635;SDS011;17400;52.392;9.750;2023-03-21T04:31:11;21.02;;;10.20;;
30635;SDS011;17400;52.392;9.750;2023-03-21T04:33:50;11.73;;;7.53;;
30635;SDS011;17400;52.392;9.750;2023-03-21T04:36:18;20.63;;;10.85;;
30635;SDS011;17400;52.392;9.750;2023-03-21T04:38:52;15.07;;;8.40;;
30635;SDS011;17400;52.392;9.750;2023-03-21T04:41:22;17.02;;;9.68;;
30635;SDS011;17400;52.392;9.750;2023-03-21T04:43:51;19.13;;;9.85;;
30635;SDS011;17400;52.392;9.750;2023-03-21T04:46:19;16.42;;;9.60;;
30635;SDS011;17400;52.392;9.750;2023-03-21T04:48:48;15.48;;;9.10;;
30635;SDS011;17400;52.392;9.750;2023-03-21T04:51:16;16.00;;;8.57;;
30635;SDS011;17400;52.392;9.750;2023-03-21T04:53:43;17.08;;;9.43;;
30635;SDS011;17400;52.392;9.750;2023-03-21T04:56:15;18.17;;;10.23;;
30635;SDS011;17400;52.392;9.750;2023-03-21T04:58:43;13.20;;;6.97;;
30635;SDS011;17400;52.392;9.750;2023-03-21T05:01:14;12.32;;;7.60;;
30635;SDS011;17400;52.392;9.750;2023-03-21T05:03:45;14.48;;;7.60;;
30635;SDS011;17400;52.392;9.750;2023-03-21T05:06:13;17.70;;;9.57;;
30635;SDS011;17400;52.392;9.750;2023-03-21T05:08:41;17.10;;;9.77;;
30635;SDS011;17400;52.392;9.750;2023-03-21T05:11:09;16.23;;;8.68;;
30635;SDS011;17400;52.392;9.750;2023-03-21T05:13:37;16.45;;;9.07;;
30635;SDS011;17400;52.392;9.750;2023-03-21T05:16:05;15.52;;;9.65;;
30635;SDS011;17400;52.392;9.750;2023-03-21T05:18:35;17.75;;;9.77;;
30635;SDS011;17400;52.392;9.750;2023-03-21T05:21:04;15.10;;;8.88;;
30635;SDS011;17400;52.392;9.750;2023-03-21T05:23:33;14.38;;;8.68;;
30635;SDS011;17400;52.392;9.750;2023-03-21T05:26:08;15.77;;;9.07;;
30635;SDS011;17400;52.392;9.750;2023-03-21T05:28:36;14.48;;;8.85;;
30635;SDS011;17400;52.392;9.750;2023-03-21T05:31:05;14.80;;;8.10;;
30635;SDS011;17400;52.392;9.750;2023-03-21T05:33:35;17.13;;;8.80;;
30635;SDS011;17400;52.392;9.750;2023-03-21T05:36:03;16.30;;;8.85;;
30635;SDS011;17400;52.392;9.750;2023-03-21T05:38:32;14.52;;;8.35;;
30635;SDS011;17400;52.392;9.750;2023-03-21T05:40:59;17.13;;;9.02;;
30635;SDS011;17400;52.392;9.750;2023-03-21T05:43:27;13.65;;;8.65;;
30635;SDS011;17400;52.392;9.750;2023-03-21T05:45:55;15.43;;;8.27;;
30635;SDS011;17400;52.392;9.750;2023-03-21T05:48:23;14.35;;;7.93;;
30635;SDS011;17400;52.392;9.750;2023-03-21T05:50:53;13.10;;;7.03;;
30635;SDS011;17400;52.392;9.750;2023-03-21T05:53:21;16.05;;;10.02;;
30635;SDS011;17400;52.392;9.750;2023-03-21T05:55:49;19.30;;;8.30;;
30635;SDS011;17400;52.392;9.750;2023-03-21T05:58:16;14.57;;;8.25;;
30635;SDS011;17400;52.392;9.750;2023-03-21T06:00:44;14.68;;;9.10;;
30635;SDS011;17400;52.392;9.750;2023-03-21T06:03:12;13.75;;;8.40;;
30635;SDS011;17400;52.392;9.750;2023-03-21T06:05:40;14.82;;;8.10;;
30635;SDS011;17400;52.392;9.750;2023-03-21T06:08:09;18.25;;;8.32;;
30635;SDS011;17400;52.392;9.750;2023-03-21T06:10:38;15.60;;;9.48;;
30635;SDS011;17400;52.392;9.750;2023-03-21T06:13:13;12.68;;;8.05;;
30635;SDS011;17400;52.392;9.750;2023-03-21T06:15:41;15.82;;;9.25;;
30635;SDS011;17400;52.392;9.750;2023-03-21T06:18:08;14.60;;;9.13;;
30635;SDS011;17400;52.392;9.750;2023-03-21T06:20:36;14.25;;;8.43;;
30635;SDS011;17400;52.392;9.750;2023-03-21T06:23:04;17.10;;;9.77;;
30635;SDS011;17400;52.392;9.750;2023-03-21T06:25:33;15.02;;;8.95;;
30635;SDS011;17400;52.392;9.750;2023-03-21T06:28:01;17.70;;;8.63;;
30635;SDS011;17400;52.392;9.750;2023-03-21T06:30:29;14.10;;;8.38;;
30635;SDS011;17400;52.392;9.750;2023-03-21T06:32:57;18.23;;;9.82;;
30635;SDS011;17400;52.392;9.750;2023-03-21T06:35:24;16.35;;;8.60;;
30635;SDS011;17400;52.392;9.750;2023-03-21T06:37:52;17.85;;;10.48;;
30635;SDS011;17400;52.392;9.750;2023-03-21T06:40:20;18.77;;;9.40;;
30635;SDS011;17400;52.392;9.750;2023-03-21T06:42:49;18.83;;;10.82;;
30635;SDS011;17400;52.392;9.750;2023-03-21T06:45:18;18.80;;;8.75;;
30635;SDS011;17400;52.392;9.750;2023-03-21T06:47:46;19.50;;;10.20;;
30635;SDS011;17400;52.392;9.750;2023-03-21T06:50:14;25.55;;;13.48;;
30635;SDS011;17400;52.392;9.750;2023-03-21T06:52:42;22.90;;;11.75;;
30635;SDS011;17400;52.392;9.750;2023-03-21T06:55:09;17.20;;;10.40;;
30635;SDS011;17400;52.392;9.750;2023-03-21T06:57:37;20.02;;;11.95;;
30635;SDS011;17400;52.392;9.750;2023-03-21T07:00:07;22.65;;;11.38;;
30635;SDS011;17400;52.392;9.750;2023-03-21T07:02:36;22.05;;;12.02;;
30635;SDS011;17400;52.392;9.750;2023-03-21T07:05:04;19.80;;;11.55;;
30635;SDS011;17400;52.392;9.750;2023-03-21T07:07:32;18.15;;;9.60;;
30635;SDS011;17400;52.392;9.750;2023-03-21T07:10:00;21.33;;;9.40;;
30635;SDS011;17400;52.392;9.750;2023-03-21T07:12:28;26.75;;;10.82;;
30635;SDS011;17400;52.392;9.750;2023-03-21T07:14:59;20.65;;;11.13;;
30635;SDS011;17400;52.392;9.750;2023-03-21T07:17:29;20.30;;;12.45;;
30635;SDS011;17400;52.392;9.750;2023-03-21T07:19:56;25.08;;;11.43;;
30635;SDS011;17400;52.392;9.750;2023-03-21T07:22:25;25.65;;;13.63;;
30635;SDS011;17400;52.392;9.750;2023-03-21T07:24:53;24.40;;;11.77;;
30635;SDS011;17400;52.392;9.750;2023-03-21T07:27:30;18.38;;;10.15;;
30635;SDS011;17400;52.392;9.750;2023-03-21T07:29:58;18.05;;;10.77;;
30635;SDS011;17400;52.392;9.750;2023-03-21T07:32:26;24.73;;;11.45;;
30635;SDS011;17400;52.392;9.750;2023-03-21T07:34:56;21.75;;;10.43;;
30635;SDS011;17400;52.392;9.750;2023-03-21T07:37:27;18.92;;;10.18;;
30635;SDS011;17400;52.392;9.750;2023-03-21T07:39:54;22.17;;;10.95;;
30635;SDS011;17400;52.392;9.750;2023-03-21T07:42:22;20.48;;;10.80;;
30635;SDS011;17400;52.392;9.750;2023-03-21T07:44:49;20.40;;;11.55;;
30635;SDS011;17400;52.392;9.750;2023-03-21T07:47:20;16.95;;;9.60;;
30635;SDS011;17400;52.392;9.750;2023-03-21T07:49:47;20.65;;;9.85;;
30635;SDS011;17400;52.392;9.750;2023-03-21T07:52:17;18.60;;;9.98;;
30635;SDS011;17400;52.392;9.750;2023-03-21T07:54:45;16.27;;;8.90;;
30635;SDS011;17400;52.392;9.750;2023-03-21T07:57:13;19.52;;;10.65;;
30635;SDS011;17400;52.392;9.750;2023-03-21T07:59:40;18.00;;;10.38;;
30635;SDS011;17400;52.392;9.750;2023-03-21T08:02:08;16.10;;;10.52;;
30635;SDS011;17400;52.392;9.750;2023-03-21T08:04:37;17.10;;;10.50;;
30635;SDS011;17400;52.392;9.750;2023-03-21T08:07:05;15.20;;;9.70;;
30635;SDS011;17400;52.392;9.750;2023-03-21T08:09:34;21.33;;;9.85;;
30635;SDS011;17400;52.392;9.750;2023-03-21T08:12:03;22.30;;;9.63;;
30635;SDS011;17400;52.392;9.750;2023-03-21T08:14:33;18.95;;;11.35;;
30635;SDS011;17400;52.392;9.750;2023-03-21T08:17:04;18.27;;;10.77;;
30635;SDS011;17400;52.392;9.750;2023-03-21T08:19:34;16.00;;;9.35;;
30635;SDS011;17400;52.392;9.750;2023-03-21T08:22:02;17.70;;;9.10;;
30635;SDS011;17400;52.392;9.750;2023-03-21T08:24:32;15.77;;;8.40;;
30635;SDS011;17400;52.392;9.750;2023-03-21T08:27:01;17.88;;;9.35;;
30635;SDS011;17400;52.392;9.750;2023-03-21T08:29:29;15.82;;;6.65;;
30635;SDS011;17400;52.392;9.750;2023-03-21T08:31:56;15.55;;;7.72;;
30635;SDS011;17400;52.392;9.750;2023-03-21T08:34:24;15.88;;;9.98;;
30635;SDS011;17400;52.392;9.750;2023-03-21T08:36:52;19.83;;;10.13;;
30635;SDS011;17400;52.392;9.750;2023-03-21T08:39:20;15.48;;;8.45;;
30635;SDS011;17400;52.392;9.750;2023-03-21T08:41:49;13.95;;;7.43;;
30635;SDS011;17400;52.392;9.750;2023-03-21T08:44:18;13.15;;;8.05;;
30635;SDS011;17400;52.392;9.750;2023-03-21T08:46:47;19.05;;;8.95;;
30635;SDS011;17400;52.392;9.750;2023-03-21T08:49:15;19.48;;;8.80;;
30635;SDS011;17400;52.392;9.750;2023-03-21T08:51:42;18.40;;;10.00;;
30635;SDS011;17400;52.392;9.750;2023-03-21T08:54:16;13.98;;;7.10;;
30635;SDS011;17400;52.392;9.750;2023-03-21T08:56:45;15.05;;;8.00;;
30635;SDS011;17400;52.392;9.750;2023-03-21T08:59:13;16.75;;;9.07;;
30635;SDS011;17400;52.392;9.750;2023-03-21T09:01:43;15.95;;;8.80;;
30635;SDS011;17400;52.392;9.750;2023-03-21T09:04:10;21.67;;;9.75;;
30635;SDS011;17400;52.392;9.750;2023-03-21T09:06:39;14.57;;;7.45;;
30635;SDS011;17400;52.392;9.750;2023-03-21T09:09:13;14.98;;;7.85;;
30635;SDS011;17400;52.392;9.750;2023-03-21T09:11:42;17.38;;;8.80;;
30635;SDS011;17400;52.392;9.750;2023-03-21T09:14:10;16.70;;;8.50;;
30635;SDS011;17400;52.392;9.750;2023-03-21T09:16:38;15.00;;;8.10;;
30635;SDS011;17400;52.392;9.750;2023-03-21T09:19:08;19.73;;;9.50;;
30635;SDS011;17400;52.392;9.750;2023-03-21T09:21:35;17.48;;;8.77;;
30635;SDS011;17400;52.392;9.750;2023-03-21T09:24:04;11.20;;;6.95;;
30635;SDS011;17400;52.392;9.750;2023-03-21T09:26:35;14.65;;;7.57;;
30635;SDS011;17400;52.392;9.750;2023-03-21T09:29:03;13.90;;;7.57;;
30635;SDS011;17400;52.392;9.750;2023-03-21T09:31:32;14.68;;;6.63;;
30635;SDS011;17400;52.392;9.750;2023-03-21T09:34:00;16.92;;;8.70;;
30635;SDS011;17400;52.392;9.750;2023-03-21T09:36:31;16.35;;;8.95;;
30635;SDS011;17400;52.392;9.750;2023-03-21T09:39:01;15.00;;;6.57;;
30635;SDS011;17400;52.392;9.750;2023-03-21T09:41:34;20.30;;;8.68;;
30635;SDS011;17400;52.392;9.750;2023-03-21T09:44:21;13.48;;;8.02;;
30635;SDS011;17400;52.392;9.750;2023-03-21T09:46:56;11.77;;;7.57;;
30635;SDS011;17400;52.392;9.750;2023-03-21T09:49:33;13.95;;;7.95;;
30635;SDS011;17400;52.392;9.750;2023-03-21T09:52:11;15.43;;;5.97;;
30635;SDS011;17400;52.392;9.750;2023-03-21T09:54:45;15.75;;;8.05;;
30635;SDS011;17400;52.392;9.750;2023-03-21T09:57:15;13.40;;;7.18;;
30635;SDS011;17400;52.392;9.750;2023-03-21T09:59:52;14.32;;;9.02;;
30635;SDS011;17400;52.392;9.750;2023-03-21T10:02:28;14.40;;;8.05;;
30635;SDS011;17400;52.392;9.750;2023-03-21T10:05:09;12.65;;;7.10;;
30635;SDS011;17400;52.392;9.750;2023-03-21T10:07:41;15.00;;;7.38;;
30635;SDS011;17400;52.392;9.750;2023-03-21T10:10:16;17.50;;;9.05;;
30635;SDS011;17400;52.392;9.750;2023-03-21T10:12:49;15.63;;;7.75;;
30635;SDS011;17400;52.392;9.750;2023-03-21T10:15:21;15.15;;;7.10;;
30635;SDS011;17400;52.392;9.750;2023-03-21T10:17:52;15.07;;;7.57;;
30635;SDS011;17400;52.392;9.750;2023-03-21T10:20:24;16.85;;;5.90;;
30635;SDS011;17400;52.392;9.750;2023-03-21T10:22:54;15.75;;;8.43;;
30635;SDS011;17400;52.392;9.750;2023-03-21T10:25:25;21.60;;;8.38;;
30635;SDS011;17400;52.392;9.750;2023-03-21T10:27:57;16.15;;;8.13;;
30635;SDS011;17400;52.392;9.750;2023-03-21T10:30:33;12.95;;;6.85;;
30635;SDS011;17400;52.392;9.750;2023-03-21T10:33:06;18.60;;;8.15;;
30635;SDS011;17400;52.392;9.750;2023-03-21T10:35:38;21.80;;;9.35;;
30635;SDS011;17400;52.392;9.750;2023-03-21T10:38:12;17.13;;;7.90;;
30635;SDS011;17400;52.392;9.750;2023-03-21T10:40:43;16.15;;;7.85;;
30635;SDS011;17400;52.392;9.750;2023-03-21T10:43:16;19.48;;;9.23;;
30635;SDS011;17400;52.392;9.750;2023-03-21T10:45:47;13.70;;;7.20;;
30635;SDS011;17400;52.392;9.750;2023-03-21T10:48:15;13.52;;;5.68;;
30635;SDS011;17400;52.392;9.750;2023-03-21T10:50:44;17.15;;;10.20;;
30635;SDS011;17400;52.392;9.750;2023-03-21T10:53:18;15.45;;;7.05;;
30635;SDS011;17400;52.392;9.750;2023-03-21T10:55:51;15.13;;;7.63;;
30635;SDS011;17400;52.392;9.750;2023-03-21T10:58:24;16.13;;;7.93;;
30635;SDS011;17400;52.392;9.750;2023-03-21T11:00:55;15.00;;;7.63;;
30635;SDS011;17400;52.392;9.750;2023-03-21T11:03:26;14.77;;;6.97;;
30635;SDS011;17400;52.392;9.750;2023-03-21T11:05:58;11.95;;;6.78;;
30635;SDS011;17400;52.392;9.750;2023-03-21T11:08:37;15.23;;;6.53;;
30635;SDS011;17400;52.392;9.750;2023-03-21T11:11:07;11.68;;;6.18;;
30635;SDS011;17400;52.392;9.750;2023-03-21T11:13:38;12.77;;;6.47;;
30635;SDS011;17400;52.392;9.750;2023-03-21T11:16:09;9.65;;;5.60;;
30635;SDS011;17400;52.392;9.750;2023-03-21T11:18:40;15.30;;;7.18;;
30635;SDS011;17400;52.392;9.750;2023-03-21T11:21:09;10.80;;;5.53;;
30635;SDS011;17400;52.392;9.750;2023-03-21T11:23:41;11.18;;;5.93;;
30635;SDS011;17400;52.392;9.750;2023-03-21T11:26:15;10.05;;;4.70;;
30635;SDS011;17400;52.392;9.750;2023-03-21T11:28:49;10.63;;;5.40;;
30635;SDS011;17400;52.392;9.750;2023-03-21T11:31:20;9.85;;;5.00;;
30635;SDS011;17400;52.392;9.750;2023-03-21T11:33:51;10.23;;;6.30;;
30635;SDS011;17400;52.392;9.750;2023-03-21T11:36:25;14.38;;;6.72;;
30635;SDS011;17400;52.392;9.750;2023-03-21T11:39:11;8.43;;;5.60;;
30635;SDS011;17400;52.392;9.750;2023-03-21T11:41:51;7.15;;;4.80;;
30635;SDS011;17400;52.392;9.750;2023-03-21T11:44:24;9.88;;;5.68;;
30635;SDS011;17400;52.392;9.750;2023-03-21T11:46:53;11.32;;;5.45;;
30635;SDS011;17400;52.392;9.750;2023-03-21T11:49:22;13.20;;;5.93;;
30635;SDS011;17400;52.392;9.750;2023-03-21T11:51:55;13.68;;;5.82;;
30635;SDS011;17400;52.392;9.750;2023-03-21T11:54:34;16.80;;;6.40;;
30635;SDS011;17400;52.392;9.750;2023-03-21T11:57:13;11.07;;;5.88;;
30635;SDS011;17400;52.392;9.750;2023-03-21T11:59:51;9.52;;;5.57;;
30635;SDS011;17400;52.392;9.750;2023-03-21T12:02:44;11.77;;;6.00;;
30635;SDS011;17400;52.392;9.750;2023-03-21T12:05:36;12.30;;;5.85;;
30635;SDS011;17400;52.392;9.750;2023-03-21T12:08:12;10.20;;;5.22;;
30635;SDS011;17400;52.392;9.750;2023-03-21T12:10:53;9.57;;;6.05;;
30635;SDS011;17400;52.392;9.750;2023-03-21T12:13:32;10.82;;;5.07;;
30635;SDS011;17400;52.392;9.750;2023-03-21T12:16:10;12.20;;;5.03;;
30635;SDS011;17400;52.392;9.750;2023-03-21T12:18:53;12.13;;;6.50;;
30635;SDS011;17400;52.392;9.750;2023-03-21T12:21:30;9.55;;;4.57;;
30635;SDS011;17400;52.392;9.750;2023-03-21T12:24:05;8.50;;;5.32;;
30635;SDS011;17400;52.392;9.750;2023-03-21T12:26:41;7.95;;;5.15;;
30635;SDS011;17400;52.392;9.750;2023-03-21T12:29:17;11.95;;;5.70;;
30635;SDS011;17400;52.392;9.750;2023-03-21T12:32:00;12.30;;;5.78;;
30635;SDS011;17400;52.392;9.750;2023-03-21T12:34:48;12.48;;;4.95;;
30635;SDS011;17400;52.392;9.750;2023-03-21T12:37:36;10.23;;;6.40;;
30635;SDS011;17400;52.392;9.750;2023-03-21T12:40:21;10.15;;;6.10;;
30635;SDS011;17400;52.392;9.750;2023-03-21T12:43:06;14.27;;;7.43;;
30635;SDS011;17400;52.392;9.750;2023-03-21T12:45:47;20.17;;;7.13;;
30635;SDS011;17400;52.392;9.750;2023-03-21T12:48:19;17.65;;;8.07;;
30635;SDS011;17400;52.392;9.750;2023-03-21T12:50:53;10.98;;;5.40;;
30635;SDS011;17400;52.392;9.750;2023-03-21T12:53:29;13.45;;;7.07;;
30635;SDS011;17400;52.392;9.750;2023-03-21T12:56:06;12.55;;;7.13;;
30635;SDS011;17400;52.392;9.750;2023-03-21T12:58:42;12.07;;;6.28;;
30635;SDS011;17400;52.392;9.750;2023-03-21T13:01:14;11.80;;;5.97;;
30635;SDS011;17400;52.392;9.750;2023-03-21T13:03:45;20.20;;;8.13;;
30635;SDS011;17400;52.392;9.750;2023-03-21T13:06:17;10.20;;;5.65;;
30635;SDS011;17400;52.392;9.750;2023-03-21T13:08:48;12.85;;;6.40;;
30635;SDS011;17400;52.392;9.750;2023-03-21T13:11:22;11.65;;;6.97;;
30635;SDS011;17400;52.392;9.750;2023-03-21T13:13:55;12.02;;;6.28;;
30635;SDS011;17400;52.392;9.750;2023-03-21T13:16:29;11.25;;;5.95;;
30635;SDS011;17400;52.392;9.750;2023-03-21T13:19:04;17.73;;;7.18;;
30635;SDS011;17400;52.392;9.750;2023-03-21T13:21:44;14.98;;;7.32;;
30635;SDS011;17400;52.392;9.750;2023-03-21T13:24:18;17.42;;;9.25;;
30635;SDS011;17400;52.392;9.750;2023-03-21T13:26:54;14.57;;;7.35;;
30635;SDS011;17400;52.392;9.750;2023-03-21T13:29:29;12.20;;;7.18;;
30635;SDS011;17400;52.392;9.750;2023-03-21T13:32:05;11.23;;;7.18;;
30635;SDS011;17400;52.392;9.750;2023-03-21T13:34:37;9.02;;;6.68;;
30635;SDS011;17400;52.392;9.750;2023-03-21T13:37:09;10.30;;;6.65;;
30635;SDS011;17400;52.392;9.750;2023-03-21T13:39:42;12.77;;;7.57;;
30635;SDS011;17400;52.392;9.750;2023-03-21T13:42:16;9.80;;;5.75;;
30635;SDS011;17400;52.392;9.750;2023-03-21T13:44:54;11.55;;;7.10;;
30635;SDS011;17400;52.392;9.750;2023-03-21T13:47:29;11.45;;;7.53;;
30635;SDS011;17400;52.392;9.750;2023-03-21T13:50:25;10.10;;;5.22;;
30635;SDS011;17400;52.392;9.750;2023-03-21T13:55:59;15.13;;;6.18;;
30635;SDS011;17400;52.392;9.750;2023-03-21T13:58:37;8.55;;;5.18;;
30635;SDS011;17400;52.392;9.750;2023-03-21T14:01:12;15.35;;;6.72;;
30635;SDS011;17400;52.392;9.750;2023-03-21T14:03:49;8.20;;;4.53;;
30635;SDS011;17400;52.392;9.750;2023-03-21T14:06:24;11.57;;;5.90;;
30635;SDS011;17400;52.392;9.750;2023-03-21T14:09:00;12.65;;;5.82;;
30635;SDS011;17400;52.392;9.750;2023-03-21T14:11:30;9.30;;;4.50;;
30635;SDS011;17400;52.392;9.750;2023-03-21T14:14:02;10.88;;;5.47;;
30635;SDS011;17400;52.392;9.750;2023-03-21T14:16:32;15.55;;;6.38;;
30635;SDS011;17400;52.392;9.750;2023-03-21T14:19:01;10.10;;;5.88;;
30635;SDS011;17400;52.392;9.750;2023-03-21T14:21:31;10.25;;;5.53;;
30635;SDS011;17400;52.392;9.750;2023-03-21T14:24:01;15.27;;;6.93;;
30635;SDS011;17400;52.392;9.750;2023-03-21T14:26:31;9.73;;;5.68;;
30635;SDS011;17400;52.392;9.750;2023-03-21T14:29:01;8.65;;;4.82;;
30635;SDS011;17400;52.392;9.750;2023-03-21T14:31:46;8.68;;;5.40;;
30635;SDS011;17400;52.392;9.750;2023-03-21T14:34:14;12.40;;;5.68;;
30635;SDS011;17400;52.392;9.750;2023-03-21T14:36:43;8.85;;;4.70;;
30635;SDS011;17400;52.392;9.750;2023-03-21T14:39:25;12.90;;;6.47;;
30635;SDS011;17400;52.392;9.750;2023-03-21T14:41:55;8.15;;;4.82;;
30635;SDS011;17400;52.392;9.750;2023-03-21T14:44:31;9.93;;;5.93;;
30635;SDS011;17400;52.392;9.750;2023-03-21T14:47:20;9.23;;;5.00;;
30635;SDS011;17400;52.392;9.750;2023-03-21T14:49:49;12.52;;;5.45;;
30635;SDS011;17400;52.392;9.750;2023-03-21T14:52:19;12.10;;;6.45;;
30635;SDS011;17400;52.392;9.750;2023-03-21T14:54:50;11.70;;;6.38;;
30635;SDS011;17400;52.392;9.750;2023-03-21T14:57:20;12.90;;;6.60;;
30635;SDS011;17400;52.392;9.750;2023-03-21T14:59:50;10.50;;;5.25;;
30635;SDS011;17400;52.392;9.750;2023-03-21T15:02:24;6.97;;;4.88;;
30635;SDS011;17400;52.392;9.750;2023-03-21T15:04:55;13.13;;;6.85;;
30635;SDS011;17400;52.392;9.750;2023-03-21T15:07:27;11.02;;;5.85;;
30635;SDS011;17400;52.392;9.750;2023-03-21T15:09:58;9.38;;;5.43;;